createdAt,value
2017-10-27T00:00:09.763Z,36.5
2017-10-27T00:01:11.134Z,36.5
2017-10-27T00:02:09.903Z,36.5
2017-10-27T00:03:10.224Z,36.5
2017-10-27T00:04:11.134Z,36.5
2017-10-27T00:05:10.120Z,36.5
2017-10-27T00:06:10.164Z,36.5
2017-10-27T00:07:10.163Z,36.5
2017-10-27T00:08:11.240Z,36.5
2017-10-27T00:09:10.400Z,36.5
2017-10-27T00:10:11.490Z,36.5
2017-10-27T00:11:11.378Z,36.5
2017-10-27T00:12:10.334Z,36.5
2017-10-27T00:13:11.734Z,36.5
2017-10-27T00:14:11.592Z,36.5
2017-10-27T00:15:10.810Z,36.5
2017-10-27T00:16:10.868Z,36.5
2017-10-27T00:17:11.717Z,36.5
2017-10-27T00:18:11.955Z,36.5
2017-10-27T00:19:11.801Z,36.5
2017-10-27T00:20:12.062Z,36.5
2017-10-27T00:21:12.090Z,36.5
2017-10-27T00:22:11.975Z,36.5
2017-10-27T00:23:10.924Z,36.5
2017-10-27T00:24:12.288Z,36.5
2017-10-27T00:25:12.110Z,36.5
2017-10-27T00:26:12.398Z,36.5
2017-10-27T00:27:12.416Z,36.5
2017-10-27T00:28:11.175Z,36.5
2017-10-27T00:29:12.330Z,36.5
2017-10-27T00:30:12.353Z,36.5
2017-10-27T00:31:12.641Z,36.5
2017-10-27T00:32:11.602Z,36.5
2017-10-27T00:33:11.385Z,36.5
2017-10-27T00:34:11.411Z,36.5
2017-10-27T00:35:12.793Z,36.5
2017-10-27T00:36:12.843Z,36.5
2017-10-27T00:37:11.649Z,36.5
2017-10-27T00:38:13.017Z,36.5
2017-10-27T00:39:52.524Z,36.5
2017-10-27T00:40:52.378Z,36.5
2017-10-27T00:41:52.694Z,36.5
2017-10-27T00:42:51.374Z,36.6
2017-10-27T00:43:51.713Z,36.6
2017-10-27T00:44:52.765Z,36.6
2017-10-27T00:45:52.745Z,36.6
2017-10-27T00:46:52.626Z,36.6
2017-10-27T00:47:52.692Z,36.6
2017-10-27T00:48:52.746Z,36.6
2017-10-27T00:49:51.940Z,36.6
2017-10-27T00:50:53.062Z,36.6
2017-10-27T00:51:51.849Z,36.6
2017-10-27T00:52:52.885Z,36.6
2017-10-27T00:53:52.922Z,36.6
2017-10-27T00:54:53.171Z,36.6
2017-10-27T00:55:53.036Z,36.6
2017-10-27T00:56:52.211Z,36.6
2017-10-27T00:57:53.343Z,36.6
2017-10-27T00:58:52.271Z,36.6
2017-10-27T00:59:53.409Z,36.6
2017-10-27T01:00:52.161Z,36.6
2017-10-27T01:01:52.230Z,36.6
2017-10-27T01:02:52.298Z,36.6
2017-10-27T01:03:53.459Z,36.6
2017-10-27T01:04:53.514Z,36.6
2017-10-27T01:05:52.654Z,36.6
2017-10-27T01:06:53.574Z,36.6
2017-10-27T01:07:52.537Z,36.6
2017-10-27T01:08:52.647Z,36.6
2017-10-27T01:09:53.971Z,36.6
2017-10-27T01:10:52.808Z,36.6
2017-10-27T01:11:53.010Z,36.6
2017-10-27T01:12:52.829Z,36.6
2017-10-27T01:13:53.076Z,36.6
2017-10-27T01:14:54.205Z,36.6
2017-10-27T01:15:53.148Z,36.6
2017-10-27T01:16:54.289Z,36.6
2017-10-27T01:17:53.068Z,36.6
2017-10-27T01:18:54.242Z,36.6
2017-10-27T01:19:53.421Z,36.6
2017-10-27T01:20:53.253Z,36.6
2017-10-27T01:21:54.595Z,36.6
2017-10-27T01:22:54.411Z,36.6
2017-10-27T01:23:54.502Z,36.6
2017-10-27T01:24:53.463Z,36.6
2017-10-27T01:25:53.627Z,36.6
2017-10-27T01:26:53.521Z,36.6
2017-10-27T01:27:53.804Z,36.6
2017-10-27T01:28:53.706Z,36.6
2017-10-27T01:29:55.050Z,36.6
2017-10-27T01:30:55.097Z,36.6
2017-10-27T01:31:55.129Z,36.6
2017-10-27T01:32:55.013Z,36.6
2017-10-27T01:33:55.270Z,36.6
2017-10-27T01:34:55.107Z,36.6
2017-10-27T01:35:55.360Z,36.6
2017-10-27T01:36:55.443Z,36.6
2017-10-27T01:37:54.235Z,36.6
2017-10-27T01:38:55.515Z,36.6
2017-10-27T01:39:54.248Z,36.6
2017-10-27T01:40:54.458Z,36.6
2017-10-27T01:41:55.420Z,36.6
2017-10-27T01:42:54.449Z,36.6
2017-10-27T01:43:55.494Z,36.6
2017-10-27T01:44:55.738Z,36.6
2017-10-27T01:45:55.598Z,36.6
2017-10-27T01:46:54.804Z,36.6
2017-10-27T01:47:54.819Z,36.6
2017-10-27T01:48:54.641Z,36.6
2017-10-27T01:49:54.684Z,36.6
2017-10-27T01:50:56.031Z,36.6
2017-10-27T01:51:56.009Z,36.6
2017-10-27T01:52:54.967Z,36.6
2017-10-27T01:53:55.857Z,36.6
2017-10-27T01:54:55.882Z,36.6
2017-10-27T01:55:56.178Z,36.6
2017-10-27T01:56:55.998Z,36.6
2017-10-27T01:57:56.299Z,36.6
2017-10-27T01:59:00.529Z,36.6
2017-10-27T01:59:56.119Z,36.6
2017-10-27T02:00:55.307Z,36.6
2017-10-27T02:01:55.453Z,36.6
2017-10-27T02:02:55.257Z,36.6
2017-10-27T02:03:55.563Z,36.6
2017-10-27T02:04:55.418Z,36.6
2017-10-27T02:05:56.744Z,36.6
2017-10-27T02:06:55.678Z,36.6
2017-10-27T02:07:55.559Z,36.6
2017-10-27T02:08:55.658Z,36.6
2017-10-27T02:09:56.946Z,36.6
2017-10-27T02:10:56.804Z,36.6
2017-10-27T02:11:55.964Z,36.6
2017-10-27T02:12:55.966Z,36.6
2017-10-27T02:13:57.160Z,36.6
2017-10-27T02:14:57.159Z,36.6
2017-10-27T02:15:57.068Z,36.6
2017-10-27T02:16:56.223Z,36.6
2017-10-27T02:17:57.331Z,36.6
2017-10-27T02:18:57.405Z,36.6
2017-10-27T02:19:57.218Z,36.6
2017-10-27T02:20:57.475Z,36.6
2017-10-27T02:21:57.249Z,36.6
2017-10-27T02:22:57.572Z,36.6
2017-10-27T02:23:57.570Z,36.6
2017-10-27T02:24:57.620Z,36.6
2017-10-27T02:25:57.684Z,36.6
2017-10-27T02:26:56.483Z,36.6
2017-10-27T02:27:57.809Z,36.6
2017-10-27T02:28:56.762Z,36.7
2017-10-27T02:29:56.880Z,36.6
2017-10-27T02:30:57.811Z,36.6
2017-10-27T02:31:57.816Z,36.6
2017-10-27T02:32:57.024Z,36.6
2017-10-27T02:33:56.899Z,36.6
2017-10-27T02:34:58.042Z,36.6
2017-10-27T02:35:57.252Z,36.6
2017-10-27T02:36:58.452Z,36.6
2017-10-27T02:37:57.386Z,36.6
2017-10-27T02:38:58.281Z,36.6
2017-10-27T02:39:58.289Z,36.6
2017-10-27T02:40:57.358Z,36.6
2017-10-27T02:41:57.397Z,36.6
2017-10-27T02:42:58.479Z,36.6
2017-10-27T02:43:57.491Z,36.6
2017-10-27T02:44:57.515Z,36.6
2017-10-27T02:45:57.742Z,36.6
2017-10-27T02:46:58.853Z,36.6
2017-10-27T02:47:58.891Z,36.6
2017-10-27T02:48:58.973Z,36.7
2017-10-27T02:49:57.775Z,36.6
2017-10-27T02:50:58.828Z,36.6
2017-10-27T02:51:58.087Z,36.6
2017-10-27T02:52:59.129Z,36.6
2017-10-27T02:53:59.064Z,36.6
2017-10-27T02:54:58.262Z,36.6
2017-10-27T02:55:59.462Z,36.6
2017-10-27T02:56:58.202Z,36.6
2017-10-27T02:57:59.527Z,36.6
2017-10-27T02:58:58.295Z,36.6
2017-10-27T02:59:58.578Z,36.6
2017-10-27T03:00:59.688Z,36.6
2017-10-27T03:01:58.600Z,36.6
2017-10-27T03:02:58.683Z,36.6
2017-10-27T03:03:59.846Z,36.6
2017-10-27T03:04:59.846Z,36.6
2017-10-27T03:05:59.891Z,36.6
2017-10-27T03:06:58.650Z,36.7
2017-10-27T03:07:58.921Z,36.7
2017-10-27T03:08:59.036Z,36.7
2017-10-27T03:09:58.889Z,36.7
2017-10-27T03:10:59.136Z,36.7
2017-10-27T03:11:59.258Z,36.7
2017-10-27T03:13:00.177Z,36.7
2017-10-27T03:13:59.333Z,36.7
2017-10-27T03:15:00.447Z,36.7
2017-10-27T03:15:59.390Z,36.7
2017-10-27T03:17:00.570Z,36.7
2017-10-27T03:18:00.418Z,36.7
2017-10-27T03:18:59.389Z,36.6
2017-10-27T03:20:00.502Z,36.7
2017-10-27T03:20:59.593Z,36.7
2017-10-27T03:22:00.702Z,36.7
2017-10-27T03:22:59.658Z,36.7
2017-10-27T03:24:00.809Z,36.7
2017-10-27T03:24:59.687Z,36.7
2017-10-27T03:25:59.559Z,36.7
2017-10-27T03:27:01.052Z,36.7
2017-10-27T03:27:59.677Z,36.7
2017-10-27T03:29:00.069Z,36.7
2017-10-27T03:29:59.936Z,36.7
2017-10-27T03:30:59.782Z,36.7
2017-10-27T03:32:00.906Z,36.7
2017-10-27T03:33:00.891Z,36.7
2017-10-27T03:34:00.984Z,36.7
2017-10-27T03:35:01.009Z,36.7
2017-10-27T03:36:01.251Z,36.7
2017-10-27T03:37:01.269Z,36.7
2017-10-27T03:38:01.112Z,36.7
2017-10-27T03:39:00.291Z,36.7
2017-10-27T03:40:01.428Z,36.7
2017-10-27T03:41:01.207Z,36.7
2017-10-27T03:42:01.310Z,36.7
2017-10-27T03:43:00.514Z,36.7
2017-10-27T03:44:01.690Z,36.7
2017-10-27T03:45:00.667Z,36.7
2017-10-27T03:46:01.527Z,36.6
2017-10-27T03:47:01.770Z,36.6
2017-10-27T03:48:00.532Z,36.6
2017-10-27T03:49:01.683Z,36.5
2017-10-27T03:50:00.723Z,36.5
2017-10-27T03:51:02.077Z,36.4
2017-10-27T03:52:00.984Z,36.4
2017-10-27T03:53:00.825Z,36.4
2017-10-27T03:54:01.887Z,36.4
2017-10-27T03:55:01.896Z,36.4
2017-10-27T03:56:01.094Z,36.4
2017-10-27T03:57:01.191Z,36.4
2017-10-27T03:58:01.107Z,36.4
2017-10-27T03:59:00.977Z,36.4
2017-10-27T04:00:02.350Z,36.4
2017-10-27T04:01:01.126Z,36.4
2017-10-27T04:02:02.233Z,36.4
2017-10-27T04:03:02.563Z,36.4
2017-10-27T04:04:02.589Z,36.4
2017-10-27T04:05:02.721Z,36.4
2017-10-27T04:06:02.701Z,36.4
2017-10-27T04:07:02.773Z,36.4
2017-10-27T04:08:01.562Z,36.4
2017-10-27T04:09:02.700Z,36.4
2017-10-27T04:10:02.931Z,36.4
2017-10-27T04:11:01.658Z,36.4
2017-10-27T04:12:03.040Z,36.5
2017-10-27T04:13:03.147Z,36.5
2017-10-27T04:14:02.992Z,36.6
2017-10-27T04:15:01.900Z,36.8
2017-10-27T04:16:01.917Z,37.1
2017-10-27T04:17:01.948Z,37.4
2017-10-27T04:18:02.248Z,37.7
2017-10-27T04:19:03.323Z,38.1
2017-10-27T04:20:02.349Z,38.4
2017-10-27T04:21:03.471Z,38.6
2017-10-27T04:22:02.260Z,38.8
2017-10-27T04:23:03.583Z,39
2017-10-27T04:24:02.386Z,39.1
2017-10-27T04:25:03.476Z,39.1
2017-10-27T04:26:03.489Z,39.2
2017-10-27T04:27:03.480Z,39.2
2017-10-27T04:28:02.568Z,39.2
2017-10-27T04:29:02.600Z,39.1
2017-10-27T04:30:02.706Z,39.1
2017-10-27T04:31:02.960Z,39
2017-10-27T04:32:02.986Z,38.9
2017-10-27T04:33:02.965Z,38.8
2017-10-27T04:34:04.129Z,38.8
2017-10-27T04:35:02.850Z,38.7
2017-10-27T04:36:04.216Z,38.5
2017-10-27T04:37:04.009Z,38.5
2017-10-27T04:38:04.017Z,38.6
2017-10-27T04:39:03.210Z,38.6
2017-10-27T04:40:03.150Z,38.7
2017-10-27T04:41:03.172Z,38.9
2017-10-27T04:42:04.375Z,39
2017-10-27T04:43:04.399Z,39.1
2017-10-27T04:44:04.469Z,39.2
2017-10-27T04:45:04.777Z,39.2
2017-10-27T04:46:04.751Z,39.4
2017-10-27T04:47:04.595Z,39.5
2017-10-27T04:48:03.587Z,39.5
2017-10-27T04:49:04.725Z,39.6
2017-10-27T04:50:03.870Z,39.7
2017-10-27T04:51:03.679Z,39.7
2017-10-27T04:52:04.776Z,39.8
2017-10-27T04:53:04.978Z,39.9
2017-10-27T04:54:04.860Z,40
2017-10-27T04:55:03.830Z,40.2
2017-10-27T04:56:04.877Z,40.3
2017-10-27T04:57:05.168Z,40.1
2017-10-27T04:58:03.916Z,40
2017-10-27T04:59:03.940Z,40
2017-10-27T05:00:05.047Z,40.1
2017-10-27T05:01:05.153Z,40.1
2017-10-27T05:02:05.475Z,40.3
2017-10-27T05:03:05.298Z,40.3
2017-10-27T05:04:04.265Z,40.4
2017-10-27T05:05:05.591Z,40.5
2017-10-27T05:06:04.319Z,40.4
2017-10-27T05:07:04.347Z,40.3
2017-10-27T05:08:05.410Z,40
2017-10-27T05:09:04.389Z,40
2017-10-27T05:10:04.493Z,40
2017-10-27T05:11:04.518Z,40.1
2017-10-27T05:12:04.682Z,40.2
2017-10-27T05:13:05.857Z,40.3
2017-10-27T05:14:04.797Z,40.5
2017-10-27T05:15:05.742Z,40.3
2017-10-27T05:16:05.831Z,40.2
2017-10-27T05:17:05.846Z,40.2
2017-10-27T05:18:05.854Z,40.2
2017-10-27T05:19:05.927Z,40.3
2017-10-27T05:20:06.169Z,40.3
2017-10-27T05:21:04.996Z,40.3
2017-10-27T05:22:05.234Z,40.2
2017-10-27T05:23:06.408Z,40.2
2017-10-27T05:24:06.512Z,40.1
2017-10-27T05:25:06.583Z,39.9
2017-10-27T05:26:06.705Z,39.9
2017-10-27T05:27:05.575Z,40
2017-10-27T05:28:06.758Z,39.9
2017-10-27T05:29:05.682Z,39.8
2017-10-27T05:30:05.586Z,39.8
2017-10-27T05:31:05.637Z,39.7
2017-10-27T05:32:06.734Z,39.7
2017-10-27T05:33:05.750Z,39.7
2017-10-27T05:34:07.086Z,39.8
2017-10-27T05:35:07.119Z,39.9
2017-10-27T05:36:07.135Z,39.9
2017-10-27T05:37:06.068Z,39.8
2017-10-27T05:38:05.884Z,39.7
2017-10-27T05:39:06.959Z,39.7
2017-10-27T05:40:07.226Z,39.7
2017-10-27T05:41:07.330Z,39.7
2017-10-27T05:42:06.096Z,39.7
2017-10-27T05:43:07.403Z,39.7
2017-10-27T05:44:06.313Z,39.7
2017-10-27T05:45:06.406Z,39.8
2017-10-27T05:46:06.484Z,39.9
2017-10-27T05:47:07.446Z,39.9
2017-10-27T05:48:07.587Z,40.2
2017-10-27T05:49:07.676Z,40.4
2017-10-27T05:50:06.617Z,40.5
2017-10-27T05:51:07.773Z,40.5
2017-10-27T05:52:07.571Z,40.4
2017-10-27T05:53:06.542Z,40.3
2017-10-27T05:54:07.915Z,40.2
2017-10-27T05:55:07.743Z,40.1
2017-10-27T05:56:08.444Z,40
2017-10-27T05:57:07.853Z,39.9
2017-10-27T05:58:07.865Z,39.8
2017-10-27T05:59:08.148Z,39.7
2017-10-27T06:00:07.081Z,39.5
2017-10-27T06:01:07.136Z,39.4
2017-10-27T06:02:08.299Z,39.4
2017-10-27T06:03:07.268Z,39.3
2017-10-27T06:04:07.055Z,39.2
2017-10-27T06:05:08.454Z,39.2
2017-10-27T06:06:08.480Z,39.1
2017-10-27T06:07:08.300Z,39
2017-10-27T06:08:08.573Z,39
2017-10-27T06:09:07.673Z,38.9
2017-10-27T06:10:08.694Z,38.9
2017-10-27T06:11:07.659Z,38.8
2017-10-27T06:12:07.482Z,38.8
2017-10-27T06:13:08.833Z,38.6
2017-10-27T06:14:07.717Z,38.6
2017-10-27T06:15:07.887Z,38.5
2017-10-27T06:16:07.780Z,38.5
2017-10-27T06:17:08.952Z,38.4
2017-10-27T06:18:07.756Z,38.3
2017-10-27T06:19:08.908Z,38.2
2017-10-27T06:20:09.055Z,38
2017-10-27T06:21:08.013Z,38
2017-10-27T06:22:09.232Z,38
2017-10-27T06:23:09.104Z,38.1
2017-10-27T06:24:09.397Z,38
2017-10-27T06:25:09.276Z,38.2
2017-10-27T06:26:08.305Z,38.2
2017-10-27T06:27:08.482Z,37.9
2017-10-27T06:28:08.541Z,38.1
2017-10-27T06:29:08.402Z,38.3
2017-10-27T06:30:09.808Z,38.3
2017-10-27T06:31:08.545Z,38.4
2017-10-27T06:32:09.728Z,38.4
2017-10-27T06:33:09.740Z,38.4
2017-10-27T06:34:08.647Z,38.2
2017-10-27T06:35:10.055Z,38.3
2017-10-27T06:36:10.127Z,38.1
2017-10-27T06:37:10.019Z,38.1
2017-10-27T06:38:08.952Z,38.2
2017-10-27T06:39:08.835Z,38.1
2017-10-27T06:40:09.088Z,37.9
2017-10-27T06:41:09.995Z,37.7
2017-10-27T06:42:10.124Z,37.4
2017-10-27T06:43:10.338Z,37.4
2017-10-27T06:44:09.214Z,37.5
2017-10-27T06:45:09.229Z,37.7
2017-10-27T06:46:10.649Z,37.7
2017-10-27T06:47:10.696Z,37.6
2017-10-27T06:48:09.597Z,37.7
2017-10-27T06:49:10.516Z,37.9
2017-10-27T06:50:10.545Z,38.1
2017-10-27T06:51:10.730Z,38.3
2017-10-27T06:52:10.974Z,38.4
2017-10-27T06:53:10.702Z,38.5
2017-10-27T06:54:11.025Z,38.5
2017-10-27T06:55:10.916Z,38.4
2017-10-27T06:56:10.983Z,38.3
2017-10-27T06:57:09.785Z,38.3
2017-10-27T06:58:11.192Z,38.2
2017-10-27T06:59:11.222Z,37.8
2017-10-27T07:00:10.187Z,37.6
2017-10-27T07:01:11.327Z,37.3
2017-10-27T07:02:10.101Z,37.2
2017-10-27T07:03:11.255Z,37.2
2017-10-27T07:04:10.461Z,37.3
2017-10-27T07:05:11.423Z,37.3
2017-10-27T07:06:11.689Z,37.4
2017-10-27T07:07:10.408Z,37.4
2017-10-27T07:08:10.465Z,37.4
2017-10-27T07:09:10.721Z,37.5
2017-10-27T07:10:10.580Z,37.6
2017-10-27T07:11:11.952Z,37.6
2017-10-27T07:12:10.940Z,37.5
2017-10-27T07:13:10.816Z,37.5
2017-10-27T07:14:12.149Z,37.5
2017-10-27T07:15:11.999Z,37.6
2017-10-27T07:16:11.216Z,37.5
2017-10-27T07:17:12.350Z,37.4
2017-10-27T07:18:12.270Z,37.4
2017-10-27T07:19:12.558Z,37.5
2017-10-27T07:20:12.310Z,37.5
2017-10-27T07:21:12.448Z,37.5
2017-10-27T07:22:11.654Z,37.4
2017-10-27T07:23:12.717Z,37.3
2017-10-27T07:24:11.779Z,37.2
2017-10-27T07:25:11.581Z,37.3
2017-10-27T07:26:11.744Z,37.2
2017-10-27T07:27:11.680Z,37.2
2017-10-27T07:28:12.993Z,37.2
2017-10-27T07:29:13.102Z,37.2
2017-10-27T07:30:13.206Z,37.2
2017-10-27T07:31:12.423Z,37.3
2017-10-27T07:32:12.998Z,37.3
2017-10-27T07:33:13.241Z,37.3
2017-10-27T07:34:13.247Z,37.2
2017-10-27T07:35:13.268Z,37.1
2017-10-27T07:36:13.294Z,37
2017-10-27T07:37:13.361Z,36.8
2017-10-27T07:38:12.231Z,36.7
2017-10-27T07:39:12.162Z,36.7
2017-10-27T07:40:12.553Z,36.6
2017-10-27T07:41:12.517Z,36.6
2017-10-27T07:42:12.264Z,36.5
2017-10-27T07:43:12.535Z,36.6
2017-10-27T07:44:12.610Z,36.6
2017-10-27T07:45:13.783Z,36.5
2017-10-27T07:46:12.534Z,36.4
2017-10-27T07:47:12.652Z,36.3
2017-10-27T07:48:14.036Z,36.4
2017-10-27T07:49:12.928Z,36.4
2017-10-27T07:50:14.101Z,36.3
2017-10-27T07:51:13.086Z,36.2
2017-10-27T07:52:12.868Z,36.2
2017-10-27T07:53:14.146Z,36
2017-10-27T07:54:14.292Z,36.1
2017-10-27T07:55:14.085Z,36
2017-10-27T07:56:14.142Z,35.5
2017-10-27T07:57:13.087Z,35.3
2017-10-27T07:58:13.327Z,35.2
2017-10-27T07:59:14.209Z,35.1
2017-10-27T08:00:14.414Z,35.3
2017-10-27T08:01:14.231Z,35.6
2017-10-27T08:02:14.421Z,35.4
2017-10-27T08:03:14.449Z,35.5
2017-10-27T08:04:13.284Z,35.6
2017-10-27T08:05:13.341Z,35.7
2017-10-27T08:06:14.428Z,35.8
2017-10-27T08:07:13.480Z,35.8
2017-10-27T08:08:14.548Z,35.7
2017-10-27T08:09:14.804Z,35.7
2017-10-27T08:10:13.583Z,35.8
2017-10-27T08:11:15.183Z,35.9
2017-10-27T08:12:14.969Z,35.9
2017-10-27T08:13:13.749Z,35.8
2017-10-27T08:14:14.862Z,35.7
2017-10-27T08:15:15.329Z,35.6
2017-10-27T08:16:13.903Z,35.5
2017-10-27T08:17:15.021Z,35.5
2017-10-27T08:18:14.181Z,35.5
2017-10-27T08:19:15.309Z,35.3
2017-10-27T08:20:15.290Z,35.2
2017-10-27T08:21:14.550Z,35.1
2017-10-27T08:22:14.558Z,35.1
2017-10-27T08:23:15.477Z,35.1
2017-10-27T08:24:14.409Z,35.2
2017-10-27T08:25:14.645Z,35.2
2017-10-27T08:26:15.450Z,35.2
2017-10-27T08:27:15.482Z,35.2
2017-10-27T08:28:15.737Z,35.2
2017-10-27T08:29:15.923Z,35.1
2017-10-27T08:30:15.144Z,35.1
2017-10-27T08:31:16.309Z,35.2
2017-10-27T08:32:14.974Z,35.2
2017-10-27T08:33:15.971Z,35.2
2017-10-27T08:34:15.023Z,35.3
2017-10-27T08:35:16.124Z,35.3
2017-10-27T08:36:14.847Z,35.3
2017-10-27T08:37:16.507Z,35.3
2017-10-27T08:38:15.003Z,35.3
2017-10-27T08:39:16.989Z,35.4
2017-10-27T08:40:16.534Z,35.3
2017-10-27T08:41:16.237Z,35.3
2017-10-27T08:42:16.492Z,35.2
2017-10-27T08:43:15.239Z,35.1
2017-10-27T08:44:15.535Z,35.1
2017-10-27T08:45:16.711Z,35.2
2017-10-27T08:46:15.642Z,35.1
2017-10-27T08:47:16.639Z,35.1
2017-10-27T08:48:16.899Z,35.2
2017-10-27T08:49:15.610Z,35.1
2017-10-27T08:50:15.979Z,35.1
2017-10-27T08:51:15.973Z,35.3
2017-10-27T08:52:16.914Z,35.2
2017-10-27T08:53:16.051Z,35.2
2017-10-27T08:54:16.157Z,35
2017-10-27T08:55:17.284Z,35
2017-10-27T08:56:16.081Z,34.9
2017-10-27T08:57:17.328Z,34.9
2017-10-27T08:59:15.780Z,35
2017-10-27T09:00:20.063Z,35
2017-10-27T09:01:20.787Z,35
2017-10-27T09:02:17.882Z,34.9
2017-10-27T09:03:16.590Z,34.8
2017-10-27T09:04:16.917Z,34.8
2017-10-27T09:05:17.818Z,34.7
2017-10-27T09:06:16.740Z,34.8
2017-10-27T09:07:17.959Z,34.7
2017-10-27T09:08:17.141Z,34.7
2017-10-27T09:09:16.846Z,34.8
2017-10-27T09:10:17.172Z,34.8
2017-10-27T09:11:17.177Z,34.9
2017-10-27T09:12:18.659Z,35
2017-10-27T09:13:18.211Z,35.1
2017-10-27T09:14:34.570Z,35.1
2017-10-27T09:15:23.672Z,35
2017-10-27T09:16:17.213Z,35
2017-10-27T09:17:17.566Z,35
2017-10-27T09:18:17.357Z,35
2017-10-27T09:19:17.586Z,35
2017-10-27T09:20:18.663Z,35.1
2017-10-27T09:21:17.750Z,35.1
2017-10-27T09:22:17.801Z,35.3
2017-10-27T09:23:17.831Z,35.4
2017-10-27T09:24:18.815Z,35.4
2017-10-27T09:25:19.020Z,35.4
2017-10-27T09:26:18.886Z,35.4
2017-10-27T09:27:18.907Z,35.4
2017-10-27T09:28:18.175Z,35.4
2017-10-27T09:29:19.172Z,35.4
2017-10-27T09:30:19.284Z,35.3
2017-10-27T09:31:19.460Z,35.2
2017-10-27T09:32:18.417Z,35.2
2017-10-27T09:33:18.435Z,35.1
2017-10-27T09:34:19.609Z,35.1
2017-10-27T09:35:18.340Z,35
2017-10-27T09:36:18.565Z,35
2017-10-27T09:37:19.796Z,34.9
2017-10-27T09:38:19.828Z,34.8
2017-10-27T09:39:19.860Z,34.8
2017-10-27T09:40:19.028Z,34.7
2017-10-27T09:41:18.631Z,34.7
2017-10-27T09:42:18.894Z,34.7
2017-10-27T09:43:20.016Z,34.7
2017-10-27T09:44:19.060Z,34.6
2017-10-27T09:45:20.042Z,34.6
2017-10-27T09:46:20.199Z,34.6
2017-10-27T09:47:19.898Z,34.5
2017-10-27T09:48:19.209Z,34.5
2017-10-27T09:49:20.142Z,34.4
2017-10-27T09:50:20.326Z,34.3
2017-10-27T09:51:20.341Z,34.2
2017-10-27T09:52:19.236Z,34.2
2017-10-27T09:53:19.137Z,34.1
2017-10-27T09:54:19.432Z,34
2017-10-27T09:55:19.295Z,33.9
2017-10-27T09:56:19.505Z,33.8
2017-10-27T09:57:19.565Z,33.7
2017-10-27T09:58:20.470Z,33.6
2017-10-27T09:59:19.450Z,33.5
2017-10-27T10:00:19.642Z,33.5
2017-10-27T10:01:19.755Z,33.5
2017-10-27T10:02:20.739Z,33.5
2017-10-27T10:03:19.874Z,33.5
2017-10-27T10:04:20.852Z,33.5
2017-10-27T10:05:19.833Z,33.4
2017-10-27T10:06:20.063Z,33.4
2017-10-27T10:07:20.131Z,33.3
2017-10-27T10:08:21.263Z,33.3
2017-10-27T10:09:21.300Z,33.3
2017-10-27T10:10:20.369Z,33.3
2017-10-27T10:11:21.263Z,33.3
2017-10-27T10:12:20.511Z,33.3
2017-10-27T10:13:21.612Z,33.3
2017-10-27T10:14:21.428Z,33.4
2017-10-27T10:15:20.353Z,33.4
2017-10-27T10:16:21.521Z,33.3
2017-10-27T10:17:20.467Z,33.3
2017-10-27T10:18:22.300Z,33.2
2017-10-27T10:19:20.526Z,33.2
2017-10-27T10:20:21.812Z,33.1
2017-10-27T10:21:21.661Z,33.1
2017-10-27T10:22:20.722Z,33
2017-10-27T10:23:20.727Z,33
2017-10-27T10:24:22.013Z,32.8
2017-10-27T10:25:21.892Z,32.7
2017-10-27T10:26:22.099Z,32.6
2017-10-27T10:27:20.933Z,32.5
2017-10-27T10:28:22.624Z,32.4
2017-10-27T10:29:22.446Z,32.3
2017-10-27T10:30:22.430Z,32.3
2017-10-27T10:31:21.206Z,32.2
2017-10-27T10:32:21.331Z,32.3
2017-10-27T10:33:22.526Z,32.4
2017-10-27T10:34:22.560Z,32.3
2017-10-27T10:35:21.571Z,32.2
2017-10-27T10:36:23.502Z,32.1
2017-10-27T10:37:22.997Z,32.2
2017-10-27T10:38:22.592Z,32.2
2017-10-27T10:39:21.801Z,32.2
2017-10-27T10:40:22.953Z,32.3
2017-10-27T10:41:23.208Z,32.4
2017-10-27T10:42:23.212Z,32.4
2017-10-27T10:43:22.037Z,32.3
2017-10-27T10:44:22.340Z,32.3
2017-10-27T10:45:23.446Z,32.4
2017-10-27T10:46:22.542Z,32.4
2017-10-27T10:47:22.514Z,32.5
2017-10-27T10:48:24.110Z,32.7
2017-10-27T10:49:22.470Z,32.8
2017-10-27T10:50:22.623Z,32.4
2017-10-27T10:51:23.614Z,31.8
2017-10-27T10:52:22.561Z,31.5
2017-10-27T10:53:22.621Z,31.4
2017-10-27T10:54:23.932Z,31.5
2017-10-27T10:55:23.800Z,31.5
2017-10-27T10:56:22.970Z,31.5
2017-10-27T10:57:23.862Z,31.6
2017-10-27T10:58:24.690Z,32.2
2017-10-27T10:59:24.029Z,32
2017-10-27T11:00:24.300Z,32
2017-10-27T11:01:23.200Z,32.1
2017-10-27T11:02:24.189Z,32.2
2017-10-27T11:03:23.409Z,32.4
2017-10-27T11:04:24.571Z,32.6
2017-10-27T11:05:24.646Z,32.5
2017-10-27T11:06:24.729Z,32.5
2017-10-27T11:07:23.618Z,32.6
2017-10-27T11:08:23.778Z,32.7
2017-10-27T11:09:24.997Z,32.7
2017-10-27T11:10:23.884Z,32.8
2017-10-27T11:11:25.012Z,32.9
2017-10-27T11:12:23.789Z,33.1
2017-10-27T11:13:25.311Z,33.2
2017-10-27T11:14:24.040Z,33.4
2017-10-27T11:15:24.083Z,33.4
2017-10-27T11:16:24.128Z,33.5
2017-10-27T11:17:24.487Z,33.5
2017-10-27T11:18:26.252Z,33.5
2017-10-27T11:19:25.635Z,33.5
2017-10-27T11:20:25.602Z,33.4
2017-10-27T11:21:25.641Z,33.4
2017-10-27T11:22:25.626Z,33.4
2017-10-27T11:23:25.743Z,33.5
2017-10-27T11:24:25.595Z,33.6
2017-10-27T11:25:25.871Z,33.6
2017-10-27T11:26:24.810Z,33.7
2017-10-27T11:27:26.250Z,33.8
2017-10-27T11:28:25.037Z,33.9
2017-10-27T11:29:26.121Z,33.9
2017-10-27T11:30:25.049Z,34
2017-10-27T11:31:25.982Z,34.1
2017-10-27T11:32:24.984Z,34.2
2017-10-27T11:33:25.217Z,34.2
2017-10-27T11:34:25.053Z,34.3
2017-10-27T11:35:25.138Z,34.3
2017-10-27T11:36:26.433Z,34.3
2017-10-27T11:37:26.429Z,34.3
2017-10-27T11:38:25.897Z,34.3
2017-10-27T11:39:25.821Z,34.3
2017-10-27T11:40:26.594Z,34.3
2017-10-27T11:41:25.317Z,34.3
2017-10-27T11:42:25.416Z,34.2
2017-10-27T11:43:26.544Z,34.2
2017-10-27T11:44:26.654Z,34.1
2017-10-27T11:45:31.663Z,34.1
2017-10-27T11:46:25.716Z,34.1
2017-10-27T11:47:26.039Z,34.1
2017-10-27T11:48:27.381Z,34.1
2017-10-27T11:49:26.816Z,34.1
2017-10-27T11:50:26.799Z,33.4
2017-10-27T11:51:26.807Z,32.6
2017-10-27T11:52:25.928Z,31.9
2017-10-27T11:53:25.980Z,31.2
2017-10-27T11:54:27.142Z,30.7
2017-10-27T11:55:25.861Z,30.4
2017-10-27T11:56:26.097Z,30.1
2017-10-27T11:57:27.244Z,29.7
2017-10-27T11:58:26.686Z,29.3
2017-10-27T11:59:26.401Z,28.8
2017-10-27T12:00:26.354Z,28.5
2017-10-27T12:01:27.569Z,28.1
2017-10-27T12:02:27.264Z,27.8
2017-10-27T12:03:26.434Z,27.5
2017-10-27T12:04:27.430Z,27.3
2017-10-27T12:05:26.585Z,27.1
2017-10-27T12:06:27.677Z,26.9
2017-10-27T12:07:26.593Z,26.7
2017-10-27T12:08:26.656Z,26.5
2017-10-27T12:09:27.959Z,26.3
2017-10-27T12:10:27.868Z,26.5
2017-10-27T12:11:27.673Z,26.5
2017-10-27T12:12:26.938Z,26.7
2017-10-27T12:13:26.742Z,26.7
2017-10-27T12:14:28.105Z,26.4
2017-10-27T12:15:27.072Z,26.3
2017-10-27T12:16:27.203Z,26.6
2017-10-27T12:17:28.305Z,27
2017-10-27T12:18:27.031Z,27.5
2017-10-27T12:19:28.264Z,27.9
2017-10-27T12:20:27.293Z,28.3
2017-10-27T12:21:27.351Z,28.6
2017-10-27T12:22:27.448Z,29
2017-10-27T12:23:27.231Z,29.3
2017-10-27T12:24:27.497Z,29.5
2017-10-27T12:25:27.292Z,29.8
2017-10-27T12:26:27.553Z,30
2017-10-27T12:27:28.746Z,30.2
2017-10-27T12:28:28.985Z,30.4
2017-10-27T12:29:28.723Z,30.6
2017-10-27T12:30:28.758Z,30.7
2017-10-27T12:31:27.684Z,30.9
2017-10-27T12:32:28.852Z,31
2017-10-27T12:33:28.985Z,31.1
2017-10-27T12:34:28.942Z,31.3
2017-10-27T12:35:27.759Z,31.4
2017-10-27T12:36:27.839Z,31.5
2017-10-27T12:37:29.298Z,31.6
2017-10-27T12:38:29.188Z,31.7
2017-10-27T12:39:27.971Z,31.8
2017-10-27T12:40:29.310Z,31.9
2017-10-27T12:41:29.252Z,31.9
2017-10-27T12:42:29.448Z,32
2017-10-27T12:43:29.592Z,32.1
2017-10-27T12:44:29.545Z,32.2
2017-10-27T12:45:28.536Z,32.2
2017-10-27T12:46:28.356Z,32.3
2017-10-27T12:47:29.729Z,32.4
2017-10-27T12:48:30.137Z,32.6
2017-10-27T12:49:29.901Z,32.7
2017-10-27T12:50:28.583Z,32.7
2017-10-27T12:51:28.763Z,32.8
2017-10-27T12:52:28.932Z,32.8
2017-10-27T12:53:28.660Z,32.9
2017-10-27T12:54:29.916Z,33.1
2017-10-27T12:55:30.065Z,33.2
2017-10-27T12:56:32.724Z,33.4
2017-10-27T12:57:28.888Z,33.5
2017-10-27T12:58:29.598Z,33.6
2017-10-27T12:59:31.411Z,33.7
2017-10-27T13:00:29.284Z,33.7
2017-10-27T13:01:30.582Z,33.7
2017-10-27T13:02:30.255Z,33.8
2017-10-27T13:03:29.280Z,33.8
2017-10-27T13:04:29.308Z,33.9
2017-10-27T13:05:30.389Z,34
2017-10-27T13:06:31.568Z,34
2017-10-27T13:07:29.416Z,34.1
2017-10-27T13:08:30.430Z,34.1
2017-10-27T13:09:30.597Z,34.1
2017-10-27T13:10:29.593Z,34.1
2017-10-27T13:11:30.847Z,34.1
2017-10-27T13:12:30.623Z,34.1
2017-10-27T13:13:30.778Z,34.1
2017-10-27T13:14:29.815Z,34.1
2017-10-27T13:15:29.836Z,34.2
2017-10-27T13:16:31.154Z,34.2
2017-10-27T13:17:30.146Z,34.3
2017-10-27T13:18:30.329Z,34.3
2017-10-27T13:19:29.995Z,34.4
2017-10-27T13:20:30.465Z,34.4
2017-10-27T13:21:31.372Z,34.5
2017-10-27T13:22:31.363Z,34.5
2017-10-27T13:23:31.488Z,34.5